This is the latest recevied weather packets stored in our database for station/object KB9HUO. If no packets are shown the sender has not sent any weather packets the latest 1 day(s).
| Time | Temp. | Humidity | Pressure | Rain* | Wind** | Luminosity | Snow |
|---|---|---|---|---|---|---|---|
| 1778010502 | 16.67° C | 95% | 1008.5 hPa | 1.27 mm | 0.89 m/s, 227° | 65 W/m² | - |
| 1778010199 | 16.67° C | 95% | 1008.6 hPa | 1.78 mm | 1.79 m/s, 197° | 100 W/m² | - |
| 1778009894 | 16.67° C | 94% | 1008.6 hPa | 3.05 mm | 0.89 m/s, 227° | 94 W/m² | - |
| 1778009592 | 16.67° C | 94% | 1008.8 hPa | 1.27 mm | 0.45 m/s, 242° | 77 W/m² | - |
| 1778009290 | 16.67° C | 94% | 1008.9 hPa | 0 mm | 0.89 m/s, 241° | 67 W/m² | - |
| 1778008988 | 16.67° C | 94% | 1008.8 hPa | 1.78 mm | 0.89 m/s, 221° | 91 W/m² | - |
| 1778008685 | 16.67° C | 94% | 1008.8 hPa | 1.78 mm | 0.89 m/s, 221° | 85 W/m² | - |
| 1778008384 | 16.67° C | 94% | 1009.1 hPa | 0 mm | 0.89 m/s, 254° | 102 W/m² | - |
| 1778008080 | 16.67° C | 94% | 1009 hPa | 0 mm | 0.89 m/s, 240° | 119 W/m² | - |
| 1778007775 | 16.11° C | 94% | 1009.3 hPa | 0 mm | 1.34 m/s, 231° | 134 W/m² | - |
| 1778007471 | 16.11° C | 94% | 1009.5 hPa | 1.78 mm | 1.34 m/s, 239° | 127 W/m² | - |
| 1778007168 | 16.11° C | 94% | 1009.5 hPa | 1.78 mm | 1.34 m/s, 231° | 113 W/m² | - |
| 1778006864 | 16.11° C | 94% | 1009.6 hPa | 0 mm | 1.79 m/s, 231° | 86 W/m² | - |
| 1778006562 | 16.11° C | 94% | 1009.7 hPa | 0 mm | 1.79 m/s, 239° | 113 W/m² | - |
| 1778006258 | 16.11° C | 94% | 1009.5 hPa | 0 mm | 1.34 m/s, 229° | 155 W/m² | - |
| 1778005956 | 16.11° C | 94% | 1009.2 hPa | 0 mm | 2.24 m/s, 194° | 158 W/m² | - |
| 1778005652 | 15.56° C | 94% | 1009 hPa | 0 mm | 0.89 m/s, 229° | 128 W/m² | - |
| 1778005349 | 15.56° C | 94% | 1009.1 hPa | 1.27 mm | 0.89 m/s, 230° | 101 W/m² | - |
| 1778005045 | 15.56° C | 94% | 1009.1 hPa | 1.27 mm | 1.34 m/s, 247° | 90 W/m² | - |
| 1778004743 | 15.56° C | 94% | 1009.1 hPa | 0 mm | 0.45 m/s, 231° | 82 W/m² | - |
| 1778004439 | 15.56° C | 94% | 1008.8 hPa | 1.78 mm | 0.89 m/s, 223° | 82 W/m² | - |
| 1778004136 | 15.56° C | 94% | 1009 hPa | 3.05 mm | 0.89 m/s, 200° | 74 W/m² | - |
| 1778003832 | 15.56° C | 94% | 1008.8 hPa | 1.27 mm | 2.68 m/s, 203° | 85 W/m² | - |
| 1778003529 | 15.56° C | 94% | 1008.9 hPa | 1.78 mm | 0.89 m/s, 235° | 67 W/m² | - |
| 1778003225 | 15° C | 94% | 1009.2 hPa | 3.05 mm | 1.34 m/s, 223° | 70 W/m² | - |
* Rain latest hour (hover to see other rain measurements)
** Current wind speed in m/s (hover to see current wind gust speed)